Time;durP1;ratioP1;P1;durP2;ratioP2;P2;SDS_P1;SDS_P2;PMS_P1;PMS_P2;Temp;Humidity;BMP_temperature;BMP_pressure;BME280_temperature;BME280_humidity;BME280_pressure;Samples;Min_cycle;Max_cycle;Signal;HPM_P1;HPM_P2
2022/09/07 00:00:42;;;;;;;19.80;4.13;;;;;;;15.16;98.57;99587.66;6271543;22;20027;-41
2022/09/07 00:03:09;;;;;;;22.60;3.80;;;;;;;15.16;98.82;99571.75;6270843;22;20055;-40
2022/09/07 00:05:44;;;;;;;36.45;4.88;;;;;;;15.14;98.83;99578.94;6272252;22;20389;-42
2022/09/07 00:08:11;;;;;;;25.20;5.82;;;;;;;15.12;99.20;99565.38;6271561;22;20020;-39
2022/09/07 00:10:38;;;;;;;37.17;6.00;;;;;;;15.10;99.24;99551.06;6271310;22;20106;-40
2022/09/07 00:13:09;;;;;;;25.63;4.53;;;;;;;15.09;99.77;99552.25;6271579;22;20319;-39
2022/09/07 00:15:39;;;;;;;26.48;4.65;;;;;;;15.12;99.95;99565.38;6271274;22;20012;-41
2022/09/07 00:18:06;;;;;;;27.67;6.18;;;;;;;15.12;100.00;99559.78;6271214;22;20019;-40
2022/09/07 00:20:32;;;;;;;24.55;5.93;;;;;;;15.11;100.00;99547.06;6270575;22;20054;-48
2022/09/07 00:22:59;;;;;;;22.75;4.55;;;;;;;15.09;100.00;99548.69;6271801;22;20307;-40
2022/09/07 00:25:26;;;;;;;33.30;4.30;;;;;;;15.08;100.00;99556.25;6271410;22;20319;-43
2022/09/07 00:27:57;;;;;;;34.75;5.28;;;;;;;15.06;100.00;99546.69;6271621;22;20019;-43
2022/09/07 00:30:23;;;;;;;34.95;5.68;;;;;;;15.03;100.00;99537.16;6270673;22;20030;-41
2022/09/07 00:32:50;;;;;;;28.90;5.22;;;;;;;15.02;100.00;99548.69;6271424;22;20043;-41
2022/09/07 00:35:17;;;;;;;34.50;6.95;;;;;;;15.01;100.00;99556.25;6271246;22;20057;-46
2022/09/07 00:37:43;;;;;;;26.40;6.63;;;;;;;15.01;100.00;99566.63;6271506;22;20027;-40
2022/09/07 00:40:10;;;;;;;34.83;4.95;;;;;;;14.97;100.00;99558.28;6270996;22;20020;-40
2022/09/07 00:42:37;;;;;;;23.50;4.82;;;;;;;14.94;100.00;99564.66;6271244;22;20023;-41
2022/09/07 00:45:18;;;;;;;27.75;5.28;;;;;;;14.92;100.00;99553.13;6271257;22;20074;-41
2022/09/07 00:48:03;;;;;;;26.42;4.55;;;;;;;14.91;100.00;99551.50;6270789;22;20060;-40
2022/09/07 00:50:51;;;;;;;27.60;5.45;;;;;;;14.90;100.00;99549.94;6268014;22;20392;-40
2022/09/07 00:53:24;;;;;;;28.73;4.97;;;;;;;14.90;100.00;99530.44;6270972;22;20391;-40
2022/09/07 00:55:52;;;;;;;41.80;6.45;;;;;;;14.90;100.00;99546.34;6271307;22;20106;-40
2022/09/07 00:58:21;;;;;;;35.03;6.22;;;;;;;14.89;100.00;99539.19;6271460;22;20015;-44
2022/09/07 01:00:49;;;;;;;30.50;5.75;;;;;;;14.89;100.00;99534.41;6242600;22;20119;-41
2022/09/07 01:03:22;;;;;;;34.63;6.75;;;;;;;14.88;100.00;99530.03;6245187;22;20034;-40
2022/09/07 01:06:05;;;;;;;43.20;6.97;;;;;;;14.90;100.00;99546.34;6273857;22;20404;-40
2022/09/07 01:08:34;;;;;;;35.03;6.75;;;;;;;14.90;100.00;99524.06;6245847;22;20069;-46
2022/09/07 01:11:01;;;;;;;37.58;7.57;;;;;;;14.91;100.00;99517.28;6272622;22;20027;-40
2022/09/07 01:13:29;;;;;;;32.50;5.35;;;;;;;14.89;100.00;99533.59;6272781;22;20034;-41
2022/09/07 01:16:11;;;;;;;30.02;6.72;;;;;;;14.87;100.00;99531.25;6272962;22;20022;-40
2022/09/07 01:18:46;;;;;;;34.20;5.90;;;;;;;14.86;100.00;99515.69;6272954;22;20617;-42
2022/09/07 01:21:49;;;;;;;32.80;5.47;;;;;;;14.87;100.00;99522.88;6272487;22;20039;-41
2022/09/07 01:24:41;;;;;;;35.00;6.07;;;;;;;14.86;100.00;99524.06;6272702;22;20094;-42
2022/09/07 01:27:28;;;;;;;38.08;6.13;;;;;;;14.89;100.00;99516.88;6273044;22;20102;-45
2022/09/07 01:30:03;;;;;;;41.60;6.85;;;;;;;14.87;100.00;99520.09;6272788;22;20392;-41
2022/09/07 01:32:50;;;;;;;45.38;8.93;;;;;;;14.88;100.00;99513.31;6272482;22;20034;-40
2022/09/07 01:35:32;;;;;;;41.03;8.43;;;;;;;14.89;100.00;99514.09;6235738;22;20019;-41
2022/09/07 01:38:04;;;;;;;42.17;5.97;;;;;;;14.89;100.00;99523.25;6273276;22;20029;-42
2022/09/07 01:40:45;;;;;;;37.67;6.53;;;;;;;14.90;100.00;99519.28;6271003;22;20023;-40
2022/09/07 01:43:38;;;;;;;40.35;6.53;;;;;;;14.90;100.00;99524.06;6272659;22;20401;-41
2022/09/07 01:46:34;;;;;;;34.97;7.93;;;;;;;14.87;100.00;99503.38;6256625;22;20073;-40
2022/09/07 01:49:19;;;;;;;31.40;6.25;;;;;;;14.86;100.00;99512.91;6252223;22;20343;-41
2022/09/07 01:51:53;;;;;;;31.50;6.38;;;;;;;14.87;100.00;99497.00;6272962;22;20024;-41
2022/09/07 01:54:27;;;;;;;35.92;7.32;;;;;;;14.86;100.00;99512.91;6271344;22;20103;-47
2022/09/07 01:57:00;;;;;;;46.05;10.38;;;;;;;14.88;100.00;99520.88;6272535;22;20447;-42
2022/09/07 01:59:27;;;;;;;43.85;7.75;;;;;;;14.87;100.00;99513.72;6272694;22;20039;-42
2022/09/07 02:02:02;;;;;;;33.72;7.93;;;;;;;14.88;100.00;99524.44;6271762;22;20255;-49
2022/09/07 02:04:52;;;;;;;64.65;7.25;;;;;;;14.87;100.00;99503.38;6272881;22;20070;-40
2022/09/07 02:07:44;;;;;;;43.28;8.10;;;;;;;14.86;100.00;99509.34;6272647;22;20073;-44
2022/09/07 02:10:26;;;;;;;37.88;5.60;;;;;;;14.84;100.00;99512.53;6255240;22;20030;-42
2022/09/07 02:12:59;;;;;;;;;;;;;;;14.85;100.00;99504.97;6273067;22;20020;-46
2022/09/07 02:15:46;;;;;;;33.08;7.10;;;;;;;14.84;100.00;99498.59;6272574;22;20006;-42
2022/09/07 02:18:13;;;;;;;24.15;4.57;;;;;;;14.84;100.00;99495.81;6244895;22;20097;-46
2022/09/07 02:20:45;;;;;;;29.25;6.72;;;;;;;14.84;100.00;99493.03;6271677;22;20344;-43
2022/09/07 02:23:17;;;;;;;45.10;7.85;;;;;;;14.84;100.00;99487.44;6271119;22;20020;-42
2022/09/07 02:25:53;;;;;;;40.03;7.13;;;;;;;14.84;100.00;99493.03;6272881;22;20094;-43
2022/09/07 02:28:29;;;;;;;64.75;10.50;;;;;;;14.85;100.00;99489.03;6272932;22;20030;-42
2022/09/07 02:30:56;;;;;;;48.38;7.60;;;;;;;14.85;100.00;99483.44;6271666;22;20019;-48
2022/09/07 02:33:23;;;;;;;46.58;9.48;;;;;;;14.84;100.00;99484.66;6272449;22;20027;-41
2022/09/07 02:35:50;;;;;;;40.35;6.30;;;;;;;14.84;100.00;99479.09;6271973;22;20460;-41
2022/09/07 02:38:18;;;;;;;36.85;6.43;;;;;;;14.84;100.00;99483.88;6272478;22;20019;-48
2022/09/07 02:40:52;;;;;;;37.58;6.70;;;;;;;14.83;100.00;99474.72;6272178;22;20043;-42
2022/09/07 02:43:20;;;;;;;51.25;8.80;;;;;;;14.85;100.00;99477.09;6271528;22;20030;-43
2022/09/07 02:45:59;;;;;;;42.75;7.32;;;;;;;14.83;100.00;99480.28;6271952;22;20106;-45
2022/09/07 02:48:45;;;;;;;40.75;6.85;;;;;;;14.85;100.00;99486.25;6272025;22;20485;-43
2022/09/07 02:51:42;;;;;;;36.17;5.68;;;;;;;14.85;100.00;99486.25;6271870;22;20058;-42
2022/09/07 02:54:37;;;;;;;36.90;5.90;;;;;;;14.84;100.00;99487.44;6271599;22;21008;-42
2022/09/07 02:57:12;;;;;;;43.90;6.90;;;;;;;14.85;100.00;99486.25;6272462;22;20115;-43
2022/09/07 02:59:47;;;;;;;33.65;6.13;;;;;;;14.84;100.00;99481.09;6271517;22;20485;-42
2022/09/07 03:03:10;;;;;;;35.10;6.03;;;;;;;14.85;100.00;99489.03;6250819;22;20027;-40
2022/09/07 03:05:47;;;;;;;36.88;6.78;;;;;;;14.84;100.00;99476.31;6177713;23;20024;-44
2022/09/07 03:08:22;;;;;;;34.90;4.93;;;;;;;14.86;100.00;99478.69;6178430;23;20025;-41
2022/09/07 03:10:50;;;;;;;28.10;4.35;;;;;;;14.86;100.00;99473.09;6246736;22;20024;-42
2022/09/07 03:13:23;;;;;;;25.75;5.43;;;;;;;14.85;100.00;99477.88;6272177;22;20020;-41
2022/09/07 03:15:50;;;;;;;29.17;4.57;;;;;;;14.84;100.00;99479.09;6272312;22;20336;-43
2022/09/07 03:18:22;;;;;;;25.25;4.00;;;;;;;14.83;100.00;99468.34;6271734;22;20183;-42
2022/09/07 03:20:50;;;;;;;30.08;5.10;;;;;;;14.83;100.00;99479.47;6271950;22;20023;-42
2022/09/07 03:23:17;;;;;;;37.92;6.25;;;;;;;14.82;100.00;99480.69;6272440;22;20098;-47
2022/09/07 03:25:47;;;;;;;20.27;4.18;;;;;;;14.80;100.00;99480.31;6271696;22;20047;-41
2022/09/07 03:28:14;;;;;;;27.30;5.68;;;;;;;14.79;100.00;99479.50;6272054;22;20023;-46
2022/09/07 03:30:48;;;;;;;18.52;3.25;;;;;;;14.78;100.00;99475.13;6272093;22;20127;-42
2022/09/07 03:33:15;;;;;;;20.63;3.70;;;;;;;14.78;100.00;99477.13;6271776;22;20446;-42
2022/09/07 03:35:44;;;;;;;22.52;3.65;;;;;;;14.75;100.00;99472.34;6272061;22;20043;-41
2022/09/07 03:38:11;;;;;;;24.35;4.43;;;;;;;14.74;100.00;99477.16;6271980;22;20047;-41
2022/09/07 03:40:38;;;;;;;19.13;3.75;;;;;;;14.73;100.00;99474.75;6271500;22;20529;-43
2022/09/07 03:43:04;;;;;;;27.92;4.30;;;;;;;14.73;100.00;99486.69;6271721;22;20349;-41
2022/09/07 03:45:31;;;;;;;14.15;3.33;;;;;;;14.73;100.00;99478.34;6271806;22;20012;-43
2022/09/07 03:47:57;;;;;;;23.20;4.03;;;;;;;14.71;100.00;99483.53;6270476;22;20023;-41
2022/09/07 03:50:24;;;;;;;16.42;3.58;;;;;;;14.71;100.00;99472.38;6271711;22;20051;-47
2022/09/07 03:52:51;;;;;;;24.67;3.85;;;;;;;14.72;100.00;99470.41;6271833;22;20410;-47
2022/09/07 03:55:17;;;;;;;19.15;4.20;;;;;;;14.71;100.00;99477.94;6271553;22;20016;-42
2022/09/07 03:57:44;;;;;;;18.98;3.45;;;;;;;14.70;100.00;99470.78;6271944;22;20038;-41
2022/09/07 04:00:13;;;;;;;23.85;3.83;;;;;;;14.69;100.00;99469.22;6271996;22;20039;-41
2022/09/07 04:02:40;;;;;;;18.48;3.80;;;;;;;14.68;100.00;99484.31;6270981;22;20342;-43
2022/09/07 04:05:07;;;;;;;22.92;3.65;;;;;;;14.68;100.00;99480.75;6271517;22;20062;-43
2022/09/07 04:07:34;;;;;;;19.10;3.72;;;;;;;14.67;100.00;99482.72;6271492;22;20353;-42
2022/09/07 04:10:01;;;;;;;21.02;4.55;;;;;;;14.66;100.00;99483.94;6271660;22;20023;-42
2022/09/07 04:12:27;;;;;;;23.08;3.38;;;;;;;14.64;100.00;99480.75;6271713;22;20722;-42
2022/09/07 04:14:54;;;;;;;16.60;3.88;;;;;;;14.63;100.00;99488.31;6271814;22;20054;-42
2022/09/07 04:17:21;;;;;;;21.15;3.22;;;;;;;14.62;100.00;99486.72;6271541;22;20287;-43
2022/09/07 04:19:47;;;;;;;22.05;3.95;;;;;;;14.63;100.00;99487.53;6271737;22;20022;-42
2022/09/07 04:22:18;;;;;;;21.77;3.50;;;;;;;14.62;100.00;99480.34;6271532;22;20022;-49
2022/09/07 04:24:44;;;;;;;21.05;3.95;;;;;;;14.61;100.00;99484.34;6271621;22;20304;-44
2022/09/07 04:27:11;;;;;;;24.40;4.40;;;;;;;14.60;100.00;99479.97;6271140;22;20041;-44
2022/09/07 04:29:38;;;;;;;30.30;5.03;;;;;;;14.60;100.00;99488.31;6270061;22;20379;-43
2022/09/07 04:32:04;;;;;;;21.02;4.50;;;;;;;14.60;100.00;99486.34;6271676;22;20022;-42
2022/09/07 04:34:31;;;;;;;20.20;4.63;;;;;;;14.59;100.00;99486.72;6271542;22;20027;-42
2022/09/07 04:36:58;;;;;;;20.20;4.25;;;;;;;14.59;100.00;99478.38;6270661;22;20468;-44
2022/09/07 04:39:24;;;;;;;23.40;3.30;;;;;;;14.58;100.00;99479.59;6271533;22;20019;-41
2022/09/07 04:41:51;;;;;;;15.80;3.25;;;;;;;14.57;100.00;99469.63;6271107;22;20031;-42
2022/09/07 04:44:18;;;;;;;21.98;3.47;;;;;;;14.57;100.00;99472.41;6271374;22;20024;-43
2022/09/07 04:46:45;;;;;;;23.35;3.25;;;;;;;14.57;100.00;99469.63;6271543;22;20049;-43
2022/09/07 04:49:12;;;;;;;24.17;3.92;;;;;;;14.56;100.00;99465.28;6271223;22;20497;-43
2022/09/07 04:51:41;;;;;;;26.63;5.10;;;;;;;14.54;100.00;99468.44;6271328;22;20019;-42
2022/09/07 04:54:09;;;;;;;25.42;3.03;;;;;;;14.54;100.00;99470.44;6271678;22;20019;-42
2022/09/07 04:56:35;;;;;;;15.18;2.95;;;;;;;14.53;100.00;99466.06;6271057;22;20146;-45
2022/09/07 04:59:03;;;;;;;20.48;3.30;;;;;;;14.54;100.00;99462.88;6271499;22;20408;-47
2022/09/07 05:01:30;;;;;;;23.65;3.40;;;;;;;14.52;100.00;99473.63;6271162;22;20341;-44
2022/09/07 05:03:59;;;;;;;17.50;4.68;;;;;;;14.49;100.00;99466.06;6271373;22;20348;-42
2022/09/07 05:06:26;;;;;;;18.20;2.85;;;;;;;14.47;100.00;99462.13;6271076;22;20023;-44
2022/09/07 05:08:53;;;;;;;17.02;2.58;;;;;;;14.47;100.00;99473.25;6271513;22;20019;-42
2022/09/07 05:11:22;;;;;;;15.10;2.78;;;;;;;14.45;100.00;99459.75;6271279;22;20122;-43
2022/09/07 05:13:59;;;;;;;10.15;1.98;;;;;;;14.45;100.00;99456.16;6271381;22;20632;-42
2022/09/07 05:16:26;;;;;;;;;;;;;;;14.44;100.00;99451.78;6272002;22;20015;-46
2022/09/07 05:19:00;;;;;;;23.38;2.90;;;;;;;14.41;100.00;99460.94;6271413;22;19937;-41
2022/09/07 05:21:29;;;;;;;13.05;3.15;;;;;;;14.41;100.00;99464.50;6271290;22;20110;-43
2022/09/07 05:23:57;;;;;;;18.75;3.60;;;;;;;14.42;100.00;99462.53;6271147;22;20015;-43
2022/09/07 05:26:26;;;;;;;24.05;5.13;;;;;;;14.42;100.00;99454.97;6271021;22;20107;-42
2022/09/07 05:28:53;;;;;;;13.23;2.70;;;;;;;14.41;100.00;99450.59;6244263;22;20855;-42
2022/09/07 05:31:40;;;;;;;9.07;3.38;;;;;;;14.41;100.00;99452.56;6271329;22;20016;-47
2022/09/07 05:34:07;;;;;;;16.27;3.05;;;;;;;14.42;100.00;99454.16;6271342;22;20023;-47
2022/09/07 05:36:55;;;;;;;25.05;3.67;;;;;;;14.44;100.00;99460.13;6270853;22;20112;-42
2022/09/07 05:39:24;;;;;;;19.02;3.17;;;;;;;14.43;100.00;99462.13;6271233;22;20352;-43
2022/09/07 05:41:51;;;;;;;15.40;2.90;;;;;;;14.44;100.00;99460.13;6271041;22;20103;-43
2022/09/07 05:44:18;;;;;;;12.90;2.75;;;;;;;14.45;100.00;99458.94;6271378;22;20047;-44
2022/09/07 05:47:05;;;;;;;22.48;3.55;;;;;;;14.44;100.00;99457.34;6270854;22;20342;-45
2022/09/07 05:49:31;;;;;;;24.80;2.97;;;;;;;14.44;100.00;99462.91;6272384;22;20385;-43
2022/09/07 05:51:58;;;;;;;17.67;2.85;;;;;;;14.44;100.00;99463.72;6274247;22;20330;-43
2022/09/07 05:54:27;;;;;;;12.25;3.40;;;;;;;14.44;100.00;99469.28;6273214;22;20020;-42
2022/09/07 05:56:54;;;;;;;18.48;3.30;;;;;;;14.44;100.00;99462.91;6273578;22;20106;-42
2022/09/07 05:59:20;;;;;;;34.17;6.43;;;;;;;14.43;100.00;99464.91;6273370;22;20119;-42
2022/09/07 06:01:47;;;;;;;21.73;4.53;;;;;;;14.43;100.00;99466.88;6272740;22;20111;-43
2022/09/07 06:04:14;;;;;;;16.83;2.67;;;;;;;14.42;100.00;99470.88;6273135;22;20023;-42
2022/09/07 06:06:41;;;;;;;18.77;3.40;;;;;;;14.42;100.00;99468.91;6273225;22;20024;-42
2022/09/07 06:09:25;;;;;;;14.38;3.58;;;;;;;14.42;100.00;99477.25;6273205;22;20031;-41
2022/09/07 06:11:56;;;;;;;27.73;3.00;;;;;;;14.41;100.00;99467.28;6245590;22;20925;-42
2022/09/07 06:14:25;;;;;;;19.05;5.00;;;;;;;14.40;100.00;99468.47;6272957;22;21018;-46
2022/09/07 06:16:52;;;;;;;12.73;2.40;;;;;;;14.42;100.00;99465.31;6272797;22;20023;-41
2022/09/07 06:19:19;;;;;;;11.05;3.13;;;;;;;14.43;100.00;99466.88;6273156;22;20042;-42
2022/09/07 06:21:45;;;;;;;18.20;2.60;;;;;;;14.44;100.00;99474.06;6272677;22;20020;-46
2022/09/07 06:24:12;;;;;;;23.63;4.32;;;;;;;14.47;100.00;99473.25;6272943;22;20401;-42
2022/09/07 06:26:39;;;;;;;15.10;3.00;;;;;;;14.49;100.00;99479.22;6272631;22;20054;-44
2022/09/07 06:29:06;;;;;;;18.85;4.20;;;;;;;14.51;100.00;99474.03;6246149;22;20015;-43
2022/09/07 06:31:32;;;;;;;19.52;3.70;;;;;;;14.53;100.00;99471.66;6245731;22;20028;-45
2022/09/07 06:34:00;;;;;;;20.05;4.07;;;;;;;14.56;100.00;99473.63;6272104;22;20019;-43
2022/09/07 06:36:27;;;;;;;20.95;3.75;;;;;;;14.58;100.00;99466.47;6272847;22;20024;-44
2022/09/07 06:38:55;;;;;;;18.25;4.55;;;;;;;14.60;100.00;99472.41;6272440;22;20041;-41
2022/09/07 06:41:24;;;;;;;22.15;3.50;;;;;;;14.62;100.00;99478.38;6272779;22;20023;-42
2022/09/07 06:44:11;;;;;;;16.63;3.15;;;;;;;14.62;100.00;99477.56;6272000;22;20020;-41
2022/09/07 06:46:40;;;;;;;20.05;3.00;;;;;;;14.62;100.00;99481.16;6272739;22;20027;-42
2022/09/07 06:49:27;;;;;;;21.13;3.15;;;;;;;14.65;100.00;99479.56;6272616;22;20388;-41
2022/09/07 06:51:54;;;;;;;17.95;3.42;;;;;;;14.65;100.00;99485.13;6245329;22;20015;-41
2022/09/07 06:54:21;;;;;;;23.17;3.10;;;;;;;14.66;100.00;99491.50;6272568;22;20382;-40
2022/09/07 06:57:07;;;;;;;16.30;3.08;;;;;;;14.65;100.00;99490.69;6271911;22;20472;-41
2022/09/07 06:59:36;;;;;;;14.13;3.13;;;;;;;14.64;100.00;99484.31;6272018;22;20028;-41
2022/09/07 07:02:04;;;;;;;13.95;3.08;;;;;;;14.62;100.00;99491.50;6271646;22;20048;-46
2022/09/07 07:04:31;;;;;;;21.70;3.88;;;;;;;14.60;100.00;99491.13;6272399;22;20019;-41
2022/09/07 07:07:09;;;;;;;13.75;2.53;;;;;;;14.59;100.00;99495.09;6272485;22;20035;-42
2022/09/07 07:09:36;;;;;;;12.52;2.80;;;;;;;14.60;100.00;99499.47;6244742;22;20046;-42
2022/09/07 07:12:06;;;;;;;26.50;5.00;;;;;;;14.61;100.00;99506.66;6271870;22;20115;-45
2022/09/07 07:14:34;;;;;;;20.38;3.08;;;;;;;14.60;100.00;99503.06;6271573;22;20512;-41
2022/09/07 07:17:05;;;;;;;;;;;;;;;14.60;100.00;99505.03;6272907;22;20050;-40
2022/09/07 07:19:31;;;;;;;11.73;3.83;;;;;;;14.60;100.00;99507.84;6271925;22;20241;-43
2022/09/07 07:21:58;;;;;;;34.60;4.70;;;;;;;14.60;100.00;99505.84;6272115;22;20106;-44
2022/09/07 07:24:45;;;;;;;33.97;7.43;;;;;;;14.61;100.00;99517.78;6271937;22;20031;-41
2022/09/07 07:27:11;;;;;;;22.98;4.72;;;;;;;14.61;100.00;99506.66;6272068;22;20107;-41
2022/09/07 07:29:38;;;;;;;18.40;4.15;;;;;;;14.61;100.00;99504.63;6270027;22;20028;-51
2022/09/07 07:32:05;;;;;;;10.65;2.30;;;;;;;14.62;100.00;99497.06;6269961;22;20107;-42
2022/09/07 07:34:31;;;;;;;12.07;2.22;;;;;;;14.62;100.00;99497.06;6271536;22;20398;-42
2022/09/07 07:36:58;;;;;;;11.82;2.55;;;;;;;14.64;100.00;99500.25;6271812;22;20089;-41
2022/09/07 07:39:25;;;;;;;11.70;2.88;;;;;;;14.68;100.00;99489.09;6271973;22;20028;-41
2022/09/07 07:42:11;;;;;;;18.60;3.28;;;;;;;14.74;100.00;99491.06;6271400;22;20023;-47
2022/09/07 07:44:39;;;;;;;21.05;3.25;;;;;;;14.84;100.00;99493.03;6271700;22;20026;-40
2022/09/07 07:47:05;;;;;;;17.05;3.35;;;;;;;14.94;100.00;99492.19;6271437;22;20484;-42
2022/09/07 07:49:32;;;;;;;17.88;2.75;;;;;;;15.04;100.00;99490.53;6271721;22;20469;-41
2022/09/07 07:51:59;;;;;;;16.75;2.83;;;;;;;15.10;100.00;99497.28;6271632;22;20050;-42
2022/09/07 07:54:46;;;;;;;18.42;3.50;;;;;;;15.16;100.00;99490.09;6271350;22;20042;-43
2022/09/07 07:57:15;;;;;;;16.95;3.85;;;;;;;15.19;100.00;99498.44;6271659;22;20024;-45
2022/09/07 07:59:42;;;;;;;30.13;3.50;;;;;;;15.20;100.00;99497.22;6271823;22;20442;-42
2022/09/07 08:02:13;;;;;;;23.95;4.22;;;;;;;15.21;100.00;99490.47;6270936;22;20030;-41
2022/09/07 08:04:40;;;;;;;28.60;3.70;;;;;;;15.21;100.00;99489.66;6271159;22;20346;-40
2022/09/07 08:07:08;;;;;;;31.70;4.22;;;;;;;15.18;100.00;99505.22;6271753;22;20126;-42
2022/09/07 08:09:39;;;;;;;21.10;4.72;;;;;;;15.18;100.00;99504.41;6245173;22;20026;-47
2022/09/07 08:12:06;;;;;;;22.70;3.80;;;;;;;15.15;100.00;99497.66;6271198;22;20023;-42
2022/09/07 08:14:35;;;;;;;31.50;6.40;;;;;;;15.15;100.00;99496.84;6271310;22;20026;-44
2022/09/07 08:17:02;;;;;;;28.67;6.45;;;;;;;15.16;100.00;99499.25;6269560;22;20420;-49
2022/09/07 08:19:28;;;;;;;24.85;4.63;;;;;;;15.20;100.00;99499.22;6271826;22;20019;-41
2022/09/07 08:21:55;;;;;;;28.50;6.40;;;;;;;15.23;100.00;99504.78;6271640;22;20020;-42
2022/09/07 08:24:22;;;;;;;33.90;8.40;;;;;;;15.32;100.00;99501.56;6271481;22;20019;-42
2022/09/07 08:26:48;;;;;;;31.55;4.97;;;;;;;15.41;100.00;99507.47;6271191;22;20346;-42
2022/09/07 08:29:15;;;;;;;29.27;5.13;;;;;;;15.51;100.00;99509.44;6271499;22;20038;-43
2022/09/07 08:31:43;;;;;;;29.95;7.18;;;;;;;15.63;100.00;99511.75;6271524;22;20102;-41
2022/09/07 08:34:10;;;;;;;39.70;5.30;;;;;;;15.69;100.00;99510.13;6271566;22;20020;-42
2022/09/07 08:36:37;;;;;;;34.08;6.45;;;;;;;15.73;100.00;99504.50;6244444;22;20046;-47
2022/09/07 08:39:03;;;;;;;43.05;7.80;;;;;;;15.77;100.00;99510.84;6271664;22;20318;-42
2022/09/07 08:41:36;;;;;;;28.63;5.82;;;;;;;15.79;100.00;99508.44;6271356;22;20020;-41
2022/09/07 08:44:11;;;;;;;35.22;5.40;;;;;;;15.81;100.00;99500.44;6244626;22;20023;-42
2022/09/07 08:47:00;;;;;;;38.85;6.57;;;;;;;15.90;100.00;99511.16;6271343;22;20027;-42
2022/09/07 08:49:42;;;;;;;27.83;5.25;;;;;;;15.97;100.00;99506.31;6271231;22;20050;-41
2022/09/07 08:52:18;;;;;;;51.00;8.18;;;;;;;16.01;100.00;99498.72;6271161;22;20023;-40
2022/09/07 08:54:59;;;;;;;25.48;5.90;;;;;;;16.00;100.00;99502.69;6259152;22;20353;-41
2022/09/07 08:57:29;;;;;;;24.60;5.35;;;;;;;15.97;100.00;99508.28;6271802;22;20027;-41
2022/09/07 09:00:05;;;;;;;34.83;6.40;;;;;;;15.94;100.00;99504.34;6244914;22;20019;-41
2022/09/07 09:02:33;;;;;;;27.45;5.38;;;;;;;15.93;100.00;99513.94;6271207;22;20020;-41
2022/09/07 09:05:40;;;;;;;31.52;4.80;;;;;;;15.90;100.00;99511.94;6271480;22;20019;-47
2022/09/07 09:08:17;;;;;;;;;;;;;;;15.86;100.00;99519.53;6272653;22;20073;-44
2022/09/07 09:11:10;;;;;;;33.15;4.90;;;;;;;15.81;100.00;99528.34;6271639;22;19926;-43
2022/09/07 09:14:00;;;;;;;24.83;4.50;;;;;;;15.80;100.00;99526.78;6229827;22;20621;-47
2022/09/07 09:16:47;;;;;;;24.88;6.00;;;;;;;15.77;100.00;99533.19;6224815;22;20016;-41
2022/09/07 09:19:26;;;;;;;20.25;4.07;;;;;;;15.73;100.00;99526.81;6251201;22;20024;-40
2022/09/07 09:22:13;;;;;;;22.55;4.07;;;;;;;15.71;100.00;99529.22;6271599;22;20023;-41
2022/09/07 09:24:45;;;;;;;22.38;4.10;;;;;;;15.69;100.00;99526.88;6273161;22;20077;-45
2022/09/07 09:27:12;;;;;;;21.17;3.28;;;;;;;15.71;100.00;99523.66;6273372;22;20028;-41
2022/09/07 09:29:40;;;;;;;25.10;4.07;;;;;;;15.73;100.00;99521.25;6273002;22;20055;-43
2022/09/07 09:32:45;;;;;;;25.30;4.22;;;;;;;15.78;100.00;99526.38;6273546;22;20015;-41
2022/09/07 09:35:17;;;;;;;29.38;4.20;;;;;;;15.78;100.00;99518.00;6273179;22;20035;-40
2022/09/07 09:37:44;;;;;;;25.38;4.43;;;;;;;15.78;100.00;99520.81;6273085;22;20026;-40
2022/09/07 09:40:29;;;;;;;35.03;4.82;;;;;;;15.74;100.00;99525.63;6273871;22;20334;-40
2022/09/07 09:43:16;;;;;;;25.20;5.63;;;;;;;15.72;100.00;99530.84;6273359;22;20020;-41
2022/09/07 09:45:53;;;;;;;26.08;3.75;;;;;;;15.95;100.00;99516.28;6272934;22;20020;-41
2022/09/07 09:48:40;;;;;;;29.35;4.78;;;;;;;16.35;100.00;99526.72;6272495;22;20069;-40
2022/09/07 09:51:08;;;;;;;31.30;5.68;;;;;;;16.44;100.00;99522.22;6272978;22;20019;-43
2022/09/07 09:54:05;;;;;;;21.70;3.78;;;;;;;16.47;100.00;99520.59;6272496;22;20019;-41
2022/09/07 12:11:23;;;;;;;34.80;5.22;;;;;;;16.88;100.00;99510.22;6182515;23;20032;-41
2022/09/07 13:32:47;;;;;;;15.90;3.85;;;;;;;17.97;94.57;99498.72;6232415;23;20020;-40
2022/09/07 13:44:19;;;;;;;22.52;4.80;;;;;;;17.98;93.53;99506.66;6242285;23;20091;-40
2022/09/07 13:47:26;;;;;;;30.67;4.75;;;;;;;17.96;92.93;99497.91;6237370;22;20024;-42
2022/09/07 13:50:21;;;;;;;19.00;4.15;;;;;;;17.94;92.61;99505.97;6234971;23;20016;-41
2022/09/07 13:53:06;;;;;;;12.48;3.70;;;;;;;17.93;92.00;99498.75;6239589;22;20040;-42
2022/09/07 14:03:44;;;;;;;27.83;4.47;;;;;;;18.01;90.84;99486.22;6241432;23;20081;-44
2022/09/07 14:07:09;;;;;;;25.15;4.85;;;;;;;18.01;90.25;99488.22;6242772;23;20089;-44
2022/09/07 14:13:22;;;;;;;29.20;4.78;;;;;;;17.86;90.11;99476.47;6242618;23;20019;-46
2022/09/07 14:19:45;;;;;;;21.88;4.53;;;;;;;17.79;90.15;99495.41;6242191;23;20016;-44
2022/09/07 14:22:16;;;;;;;;;;;;;;;17.68;89.82;99486.38;6240942;23;20466;-43
2022/09/07 14:25:08;;;;;;;19.08;4.28;;;;;;;17.68;90.42;99492.78;6241791;23;19981;-45
2022/09/07 14:32:00;;;;;;;35.40;7.57;;;;;;;17.63;90.24;99485.63;6259015;22;20032;-42
2022/09/07 14:34:35;;;;;;;32.45;5.95;;;;;;;17.62;90.10;99489.66;6270799;22;20434;-45
2022/09/07 14:37:31;;;;;;;31.30;6.80;;;;;;;17.58;89.93;99486.09;6275020;22;20389;-41
2022/09/07 14:47:37;;;;;;;27.45;4.75;;;;;;;17.62;89.92;99489.66;6275167;22;20025;-40
2022/09/07 14:54:41;;;;;;;31.90;5.32;;;;;;;17.65;90.23;99488.03;6271341;22;20023;-42
2022/09/07 14:57:14;;;;;;;36.03;6.38;;;;;;;17.63;90.34;99484.84;6274869;22;20035;-44
2022/09/07 14:59:46;;;;;;;35.95;7.28;;;;;;;17.59;90.26;99478.50;6273364;22;20323;-42
2022/09/07 15:06:10;;;;;;;26.70;5.20;;;;;;;17.56;90.31;99474.56;6274342;22;20018;-41
2022/09/07 15:09:36;;;;;;;22.10;4.85;;;;;;;17.48;89.87;99481.44;6269794;22;20073;-40
2022/09/07 15:16:30;;;;;;;31.60;6.40;;;;;;;17.30;90.45;99486.50;6271849;22;20316;-42
2022/09/07 15:19:33;;;;;;;29.48;6.55;;;;;;;17.28;90.53;99483.34;6268857;22;20047;-41
2022/09/07 15:22:21;;;;;;;26.05;4.47;;;;;;;17.31;90.56;99474.09;6250660;22;20028;-46
2022/09/07 15:25:10;;;;;;;21.15;4.93;;;;;;;17.35;90.54;99479.63;6270761;22;20031;-47
2022/09/07 15:27:57;;;;;;;29.02;4.80;;;;;;;17.39;90.36;99483.19;6248796;22;20023;-45
2022/09/07 15:30:44;;;;;;;27.17;3.85;;;;;;;17.39;90.41;99474.78;6271349;22;20028;-41
2022/09/07 15:33:50;;;;;;;24.42;3.85;;;;;;;17.36;90.13;99476.44;6273674;22;20070;-41
2022/09/07 15:40:41;;;;;;;18.90;3.83;;;;;;;17.42;89.54;99471.91;6274490;22;20015;-43
2022/09/07 15:43:31;;;;;;;16.67;2.97;;;;;;;17.51;88.95;99479.78;6269698;22;20106;-41
2022/09/07 15:46:18;;;;;;;12.40;3.40;;;;;;;17.56;88.94;99484.94;6273832;22;20028;-43
2022/09/07 15:49:05;;;;;;;15.25;3.03;;;;;;;17.57;88.41;99475.34;6272217;22;20024;-42
2022/09/07 15:59:47;;;;;;;16.27;2.97;;;;;;;17.73;87.34;99480.31;6269828;22;20016;-45
2022/09/07 16:05:55;;;;;;;23.70;3.65;;;;;;;17.64;87.42;99476.03;6273696;22;20016;-41
2022/09/07 16:08:42;;;;;;;25.55;5.47;;;;;;;17.63;87.25;99471.63;6270309;22;20417;-41
2022/09/07 16:11:29;;;;;;;16.63;2.33;;;;;;;17.63;86.97;99474.44;6270598;22;20226;-41
2022/09/07 16:14:17;;;;;;;17.80;3.25;;;;;;;17.57;86.88;99476.16;6272578;22;20020;-40
2022/09/07 16:21:14;;;;;;;24.98;4.53;;;;;;;17.68;86.91;99475.19;6270868;22;20077;-45
2022/09/07 16:28:14;;;;;;;15.85;3.28;;;;;;;18.03;87.43;99464.19;6267113;22;20240;-40
2022/09/07 16:31:06;;;;;;;30.23;3.45;;;;;;;18.31;86.83;99468.50;6268247;22;20031;-40
2022/09/07 16:33:53;;;;;;;18.08;3.83;;;;;;;18.32;85.93;99469.28;6268769;22;20054;-40
2022/09/07 16:36:40;;;;;;;20.98;3.25;;;;;;;18.14;85.95;99464.78;6271708;22;20127;-42
2022/09/07 16:39:27;;;;;;;17.63;3.35;;;;;;;18.19;86.99;99474.69;6270669;22;20024;-41